WetterOnline ( https://www.wetteronline.de )

Wetter aktuell Eibenstock

Aktuelles Wetter: Carlsfeld (899m)

6-stündlich | Neueste Meldungen
Ortszeit Temperatur Wetter
So, 29.11. 7:00 -3.6° C bedeckt
So, 29.11. 1:00 -3.9° C bedeckt
Sa, 28.11. 19:00 -3.2° C bedeckt
Sa, 28.11. 13:00 3.7° C wolkenlos
Sa, 28.11. 7:00 -1.6° C wolkenlos
Sa, 28.11. 1:00 -1.4° C fast wolkenlos
Fr, 27.11. 19:00 1.8° C bedeckt
Fr, 27.11. 13:00 6.5° C bedeckt
Ortszeit Temperatur Wetter
So, 29.11. 9:00 -3.4° C bedeckt
So, 29.11. 8:50 -3.4° C bedeckt
So, 29.11. 8:40 -3.5° C bedeckt
So, 29.11. 8:30 -3.5° C bedeckt
So, 29.11. 8:20 -3.5° C bedeckt
So, 29.11. 8:10 -3.5° C bedeckt
So, 29.11. 8:00 -3.6° C bedeckt
So, 29.11. 7:30 -3.6° C bedeckt
So, 29.11. 7:00 -3.6° C bedeckt
So, 29.11. 6:30 -3.5° C bedeckt
So, 29.11. 6:00 -3.6° C bedeckt
Ortszeit Relative Feuchte Sichtweite
So, 29.11. 7:00 84% 50 km
So, 29.11. 1:00 87% 45 km
Sa, 28.11. 19:00 94% 11 km
Sa, 28.11. 13:00 72% 50 km
Sa, 28.11. 7:00 97% 30 km
Sa, 28.11. 1:00 96% 40 km
Fr, 27.11. 19:00 90% 55 km
Fr, 27.11. 13:00 72% 60 km
Ortszeit Relative Feuchte Sichtweite
So, 29.11. 9:00 83% >70 km
So, 29.11. 8:50 83% -
So, 29.11. 8:40 83% -
So, 29.11. 8:30 83% 60 km
So, 29.11. 8:20 83% -
So, 29.11. 8:10 83% -
So, 29.11. 8:00 83% 55 km
So, 29.11. 7:30 85% 55 km
So, 29.11. 7:00 84% 50 km
So, 29.11. 6:30 85% 65 km
So, 29.11. 6:00 85% 55 km
Ortszeit Niederschlagsmenge Niederschlagsart
So, 29.11. 7:00 0.1 l/m2 in 12 Std. Schnee, Sprühregen
So, 29.11. 1:00 0.0 l/m2 in 6 Std. -
Sa, 28.11. 19:00 0.0 l/m2 in 12 Std. -
Sa, 28.11. 13:00 0.0 l/m2 in 6 Std. -
Sa, 28.11. 7:00 0.0 l/m2 in 12 Std. -
Sa, 28.11. 1:00 0.0 l/m2 in 6 Std. -
Fr, 27.11. 19:00 0.0 l/m2 in 12 Std. -
Fr, 27.11. 13:00 0.0 l/m2 in 6 Std. -
Ortszeit Niederschlagsmenge Niederschlagsart
So, 29.11. 9:00 0.0 l/m2 in 1 Std. -
So, 29.11. 8:50 keine Meldung -
So, 29.11. 8:40 keine Meldung -
So, 29.11. 8:30 0.0 l/m2 in 1 Std. -
So, 29.11. 8:20 keine Meldung -
So, 29.11. 8:10 keine Meldung -
So, 29.11. 8:00 0.0 l/m2 in 1 Std. -
So, 29.11. 7:30 0.0 l/m2 in 1 Std. -
So, 29.11. 7:00 0.0 l/m2 in 1 Std. Schnee, Sprühregen
So, 29.11. 6:30 0.0 l/m2 in 1 Std. -
So, 29.11. 6:00 0.0 l/m2 in 1 Std. -
Ortszeit Stärke Spitze Richtung
km/h Bft. km/h Grad Sektor
So, 29.11. 7:00 13 3 24 70° O
So, 29.11. 1:00 7 2 22 100° O
Sa, 28.11. 19:00 4 1 22 120° SO
Sa, 28.11. 13:00 7 2 14 60° NO
Sa, 28.11. 7:00 0 0 7 - -
Sa, 28.11. 1:00 4 1 7 240° SW
Fr, 27.11. 19:00 0 0 18 - -
Fr, 27.11. 13:00 4 1 11 240° SW
Ortszeit Stärke Spitze Richtung
km/h Bft. km/h Grad Sektor
So, 29.11. 9:00 9 2 22 80° O
So, 29.11. 8:50 9 2 - 80° O
So, 29.11. 8:40 13 3 - 90° O
So, 29.11. 8:30 11 2 22 90° O
So, 29.11. 8:20 11 2 - 90° O
So, 29.11. 8:10 11 2 - 90° O
So, 29.11. 8:00 11 2 25 90° O
So, 29.11. 7:30 7 2 22 90° O
So, 29.11. 7:00 13 3 24 70° O
So, 29.11. 6:30 11 2 18 90° O
So, 29.11. 6:00 11 2 18 100° O
Ortszeit Untergrenze Bedeckung Gattung
total tief tief mittel hoch
So, 29.11. 7:00 270 m 8/8 8/8 - - -
So, 29.11. 1:00 360 m 8/8 8/8 - - -
Sa, 28.11. 19:00 120 m 8/8 8/8 - - -
Sa, 28.11. 13:00 - 0/8 0/8 - - -
Sa, 28.11. 7:00 - 0/8 0/8 - - -
Sa, 28.11. 1:00 1350 m 1/8 1/8 - - -
Fr, 27.11. 19:00 1320 m 8/8 8/8 - - -
Fr, 27.11. 13:00 1500 m 8/8 8/8 - - -
Ortszeit Bedeckungsgrad in Achtel und Wolkenuntergrenze
So, 29.11. 9:00 8(330m)
So, 29.11. 8:50 8(330m)
So, 29.11. 8:40 8(330m)
So, 29.11. 8:30 8(360m)
So, 29.11. 8:20 8(360m)
So, 29.11. 8:10 8(360m)
So, 29.11. 8:00 8(360m)
So, 29.11. 7:30 8(270m)
So, 29.11. 7:00 8(270m)
So, 29.11. 6:30 8(300m)
So, 29.11. 6:00 8(270m)
Ortszeit Stationsdruck (hPa) Tendenz (hPa in 3 Std.)
So, 29.11. 7:00 917 0,0
So, 29.11. 1:00 917 + 0,1
Sa, 28.11. 19:00 916 + 0,7
Sa, 28.11. 13:00 915 - 0,3
Sa, 28.11. 7:00 915 - 0,2
Sa, 28.11. 1:00 915 - 0,4
Fr, 27.11. 19:00 916 + 0,3
Fr, 27.11. 13:00 916 - 0,5
Ortszeit Stationsdruck (hPa) Tendenz (hPa in 3 Std.)
So, 29.11. 9:00 918 + 0,9
So, 29.11. 8:50 918 keine Meldung
So, 29.11. 8:40 918 keine Meldung
So, 29.11. 8:30 918 + 0,8
So, 29.11. 8:20 918 keine Meldung
So, 29.11. 8:10 918 keine Meldung
So, 29.11. 8:00 918 + 0,6
So, 29.11. 7:30 917 + 0,3
So, 29.11. 7:00 917 0,0
So, 29.11. 6:30 917 - 0,1
So, 29.11. 6:00 917 - 0,3
Ortszeit Schneehöhe (cm)
So, 29.11. 7:00 0
So, 29.11. 1:00 0
Sa, 28.11. 19:00 0
Sa, 28.11. 13:00 0
Sa, 28.11. 7:00 0
Sa, 28.11. 1:00 0
Fr, 27.11. 19:00 0
Fr, 27.11. 13:00 0
Ortszeit Schneehöhe (cm)
So, 29.11. 9:00 0
So, 29.11. 8:50 0
So, 29.11. 8:40 0
So, 29.11. 8:30 0
So, 29.11. 8:20 0
So, 29.11. 8:10 0
So, 29.11. 8:00 0
So, 29.11. 7:30 0
So, 29.11. 7:00 0
So, 29.11. 6:30 0
So, 29.11. 6:00 0
Link zu dieser Seite / Seite empfehlen

Das Wetter in ...